createdAt,value
2018-12-08T00:03:52.750Z,6.30
2018-12-08T00:13:52.739Z,6.30
2018-12-08T00:23:52.757Z,6.10
2018-12-08T00:33:52.792Z,6.13
2018-12-08T00:43:52.751Z,6.24
2018-12-08T00:54:00.078Z,6.11
2018-12-08T01:03:52.706Z,6.20
2018-12-08T01:13:52.710Z,6.17
2018-12-08T01:23:52.719Z,6.26
2018-12-08T01:33:52.747Z,6.26
2018-12-08T01:43:52.721Z,6.31
2018-12-08T01:53:52.652Z,6.39
2018-12-08T02:03:52.963Z,6.48
2018-12-08T02:13:52.697Z,6.46
2018-12-08T02:23:52.716Z,6.26
2018-12-08T02:33:52.701Z,6.22
2018-12-08T02:43:52.571Z,6.28
2018-12-08T02:53:52.625Z,6.33
2018-12-08T03:03:52.731Z,6.41
2018-12-08T03:13:52.623Z,6.44
2018-12-08T03:23:52.623Z,6.50
2018-12-08T03:33:52.719Z,6.52
2018-12-08T03:43:52.630Z,6.58
2018-12-08T03:53:52.705Z,6.55
2018-12-08T04:03:52.914Z,6.50
2018-12-08T04:13:52.728Z,6.28
2018-12-08T04:23:53.881Z,6.41
2018-12-08T04:33:52.782Z,6.50
2018-12-08T04:43:52.702Z,6.40
2018-12-08T04:53:52.698Z,6.50
2018-12-08T05:03:52.786Z,6.63
2018-12-08T05:13:52.675Z,6.61
2018-12-08T05:23:52.658Z,6.06
2018-12-08T05:33:52.671Z,5.98
2018-12-08T05:43:52.669Z,6.06
2018-12-08T05:53:52.623Z,6.14
2018-12-08T06:03:52.703Z,6.05
2018-12-08T06:13:53.326Z,6.09
2018-12-08T06:23:52.670Z,6.29
2018-12-08T06:33:52.709Z,6.05
2018-12-08T06:43:52.658Z,6.15
2018-12-08T06:53:52.835Z,6.21
2018-12-08T07:03:52.643Z,6.16
2018-12-08T07:13:52.627Z,6.10
2018-12-08T07:23:52.633Z,6.16
2018-12-08T07:33:52.708Z,6.34
2018-12-08T07:43:52.582Z,6.47
2018-12-08T07:53:52.695Z,6.72
2018-12-08T08:03:52.619Z,6.83
2018-12-08T08:13:53.455Z,6.87
2018-12-08T08:23:52.622Z,6.80
2018-12-08T08:33:52.604Z,6.88
2018-12-08T08:43:52.580Z,6.63
2018-12-08T08:53:52.576Z,6.83
2018-12-08T09:03:52.651Z,7.11
2018-12-08T09:13:52.624Z,7.19
2018-12-08T09:23:52.642Z,7.33
2018-12-08T09:33:53.047Z,7.57
2018-12-08T09:43:52.608Z,7.79
2018-12-08T09:53:52.575Z,8.01
2018-12-08T10:03:52.612Z,8.05
2018-12-08T10:13:52.639Z,8.28
2018-12-08T10:23:52.570Z,8.42
2018-12-08T10:33:52.543Z,8.46
2018-12-08T10:43:52.583Z,8.40
2018-12-08T10:53:52.539Z,8.44
2018-12-08T11:03:52.589Z,8.50
2018-12-08T11:13:52.587Z,8.51
2018-12-08T11:23:52.602Z,8.57
2018-12-08T11:33:52.478Z,8.69
2018-12-08T11:43:54.885Z,8.90
2018-12-08T11:53:52.558Z,9.01
2018-12-08T12:03:52.552Z,9.13
2018-12-08T12:13:52.681Z,9.16
2018-12-08T12:23:52.687Z,9.17
2018-12-08T12:33:52.534Z,9.14
2018-12-08T12:43:52.545Z,9.26
2018-12-08T12:53:52.596Z,9.34
2018-12-08T13:03:52.520Z,9.34
2018-12-08T13:13:52.545Z,9.39
2018-12-08T13:23:52.526Z,9.33
2018-12-08T13:33:52.599Z,9.32
2018-12-08T13:43:56.323Z,9.46
2018-12-08T13:53:52.613Z,9.54
2018-12-08T14:03:52.503Z,9.64
2018-12-08T14:13:52.546Z,9.60
2018-12-08T14:23:52.618Z,9.59
2018-12-08T14:33:52.542Z,9.61
2018-12-08T14:43:52.550Z,9.62
2018-12-08T14:53:52.485Z,9.57
2018-12-08T15:03:52.513Z,9.60
2018-12-08T15:13:52.628Z,9.58
2018-12-08T15:23:53.224Z,9.63
2018-12-08T15:33:52.476Z,9.57
2018-12-08T15:43:52.602Z,9.52
2018-12-08T15:53:56.339Z,9.57
2018-12-08T16:03:52.552Z,9.57
2018-12-08T16:13:52.523Z,8.86
2018-12-08T16:23:53.534Z,8.64
2018-12-08T16:33:52.552Z,8.31
2018-12-08T16:43:52.524Z,8.09
2018-12-08T16:53:52.409Z,8.08
2018-12-08T17:03:52.548Z,8.14
2018-12-08T17:13:52.551Z,8.37
2018-12-08T17:23:52.440Z,8.54
2018-12-08T17:33:52.478Z,8.69
2018-12-08T17:43:52.481Z,8.80
2018-12-08T17:53:52.496Z,8.36
2018-12-08T18:03:52.565Z,8.32
2018-12-08T18:13:52.502Z,8.14
2018-12-08T18:23:52.498Z,8.28
2018-12-08T18:33:52.387Z,8.53
2018-12-08T18:43:52.494Z,8.60
2018-12-08T18:53:52.432Z,8.67
2018-12-08T19:03:52.498Z,8.75
2018-12-08T19:13:52.508Z,8.91
2018-12-08T19:23:52.431Z,9.10
2018-12-08T19:33:52.500Z,8.91
2018-12-08T19:43:52.522Z,8.64
2018-12-08T19:53:52.434Z,8.67
2018-12-08T20:03:52.521Z,8.96
2018-12-08T20:13:52.498Z,9.13
2018-12-08T20:23:52.459Z,9.51
2018-12-08T20:33:52.404Z,9.54
2018-12-08T20:43:52.484Z,9.54
2018-12-08T20:53:52.529Z,9.36
2018-12-08T21:03:52.517Z,9.34
2018-12-08T21:13:52.460Z,9.47
2018-12-08T21:23:53.542Z,9.69
2018-12-08T21:33:52.495Z,9.83
2018-12-08T21:43:52.522Z,9.90
2018-12-08T21:53:53.583Z,9.96
2018-12-08T22:03:52.416Z,9.77
2018-12-08T22:13:52.447Z,9.78
2018-12-08T22:23:52.998Z,10.03
2018-12-08T22:33:52.532Z,9.93
2018-12-08T22:43:52.479Z,9.94
2018-12-08T22:53:52.408Z,9.98
2018-12-08T23:03:52.428Z,9.92
2018-12-08T23:13:52.431Z,9.65
2018-12-08T23:23:52.394Z,9.38
2018-12-08T23:33:52.367Z,9.16
2018-12-08T23:43:52.492Z,9.09
2018-12-08T23:53:52.439Z,9.04
